createdAt,value
2022-10-01T00:04:01.586Z,10.29
2022-10-01T00:09:03.507Z,10.27
2022-10-01T00:14:05.315Z,10.33
2022-10-01T00:19:07.002Z,10.33
2022-10-01T00:24:12.473Z,10.31
2022-10-01T00:29:15.524Z,10.33
2022-10-01T00:34:17.092Z,10.28
2022-10-01T00:39:19.378Z,10.29
2022-10-01T00:44:33.317Z,10.26
2022-10-01T00:49:37.403Z,10.26
2022-10-01T00:55:01.404Z,10.28
2022-10-01T01:00:06.633Z,10.27
2022-10-01T01:05:10.205Z,10.35
2022-10-01T01:10:14.980Z,10.36
2022-10-01T01:15:42.363Z,10.39
2022-10-01T01:20:54.803Z,10.43
2022-10-01T01:26:16.380Z,10.37
2022-10-01T01:31:25.407Z,10.47
2022-10-01T01:36:32.589Z,10.43
2022-10-01T01:41:39.715Z,10.51
2022-10-01T01:46:46.251Z,10.52
2022-10-01T01:52:16.386Z,10.46
2022-10-01T01:57:20.007Z,10.47
2022-10-01T02:02:28.830Z,10.55
2022-10-01T02:07:30.586Z,10.62
2022-10-01T02:13:05.171Z,10.66
2022-10-01T02:18:30.198Z,10.69
2022-10-01T02:23:39.467Z,10.74
2022-10-01T02:28:42.606Z,10.84
2022-10-01T02:33:46.979Z,10.85
2022-10-01T02:38:50.803Z,10.92
2022-10-01T02:44:00.340Z,10.93
2022-10-01T02:49:04.419Z,11.01
2022-10-01T02:54:16.422Z,10.98
2022-10-01T02:59:20.348Z,11.03
2022-10-01T03:04:22.030Z,11.07
2022-10-01T03:09:23.788Z,11.11
2022-10-01T03:14:25.700Z,11.13
2022-10-01T03:19:27.386Z,11.17
2022-10-01T03:24:29.360Z,11.23
2022-10-01T03:29:31.362Z,11.31
2022-10-01T03:34:32.985Z,11.45
2022-10-01T03:39:34.966Z,11.44
2022-10-01T03:44:36.624Z,11.56
2022-10-01T03:49:38.386Z,11.68
2022-10-01T03:54:40.123Z,11.71
2022-10-01T03:59:42.233Z,11.74
2022-10-01T04:04:43.898Z,11.85
2022-10-01T04:09:45.557Z,11.97
2022-10-01T04:14:47.211Z,12.01
2022-10-01T04:19:48.798Z,12.06
2022-10-01T04:24:50.485Z,12.10
2022-10-01T04:29:52.081Z,12.15
2022-10-01T04:34:53.743Z,12.15
2022-10-01T04:39:55.363Z,12.12
2022-10-01T04:44:57.385Z,12.16
2022-10-01T04:49:58.938Z,12.17
2022-10-01T04:55:01.243Z,12.18
2022-10-01T05:00:05.728Z,12.17
2022-10-01T05:05:08.106Z,12.19
2022-10-01T05:10:13.520Z,12.22
2022-10-01T05:15:16.779Z,12.23
2022-10-01T05:20:23.825Z,12.26
2022-10-01T05:25:25.507Z,12.30
2022-10-01T05:30:27.377Z,12.33
2022-10-01T05:35:29.607Z,12.38
2022-10-01T05:40:31.473Z,12.39
2022-10-01T05:45:33.820Z,12.38
2022-10-01T05:50:40.255Z,12.40
2022-10-01T05:55:42.163Z,12.38
2022-10-01T06:00:44.287Z,12.43
2022-10-01T06:05:46.148Z,12.43
2022-10-01T06:10:48.327Z,12.43
2022-10-01T06:15:52.293Z,12.48
2022-10-01T06:20:54.107Z,12.54
2022-10-01T06:25:55.732Z,12.59
2022-10-01T06:30:57.504Z,12.67
2022-10-01T06:35:59.375Z,12.78
2022-10-01T06:41:03.759Z,12.77
2022-10-01T06:46:05.891Z,12.78
2022-10-01T06:51:08.709Z,12.77
2022-10-01T06:56:10.411Z,12.76
2022-10-01T07:01:12.080Z,12.83
2022-10-01T07:06:13.847Z,12.96
2022-10-01T07:11:16.078Z,13.07
2022-10-01T07:16:17.815Z,13.22
2022-10-01T07:21:19.445Z,13.39
2022-10-01T07:26:21.089Z,13.47
2022-10-01T07:31:24.233Z,13.39
2022-10-01T07:36:25.948Z,13.45
2022-10-01T07:41:27.501Z,13.45
2022-10-01T07:46:33.943Z,13.47
2022-10-01T07:51:36.812Z,13.57
2022-10-01T07:56:38.613Z,13.75
2022-10-01T08:01:40.279Z,13.91
2022-10-01T08:06:42.703Z,13.99
2022-10-01T08:11:45.466Z,14.13
2022-10-01T08:16:47.708Z,14.25
2022-10-01T08:21:49.473Z,14.57
2022-10-01T08:26:53.458Z,14.82
2022-10-01T08:31:56.278Z,15.00
2022-10-01T08:36:57.914Z,14.70
2022-10-01T08:42:16.159Z,14.77
2022-10-01T08:47:38.690Z,14.52
2022-10-01T08:52:57.955Z,14.44
2022-10-01T08:58:03.638Z,14.53
2022-10-01T09:03:08.576Z,14.43
2022-10-01T09:08:45.973Z,14.45
2022-10-01T09:14:04.263Z,14.84
2022-10-01T09:19:55.021Z,14.77
2022-10-01T09:25:05.107Z,14.60
2022-10-01T09:30:20.665Z,15.05
2022-10-01T09:35:33.322Z,15.70
2022-10-01T09:40:38.713Z,15.70
2022-10-01T09:45:40.877Z,15.67
2022-10-01T09:50:55.731Z,15.36
2022-10-01T09:56:03.574Z,15.32
2022-10-01T10:01:18.271Z,15.54
2022-10-01T10:06:27.253Z,15.20
2022-10-01T10:11:31.805Z,15.19
2022-10-01T10:16:37.316Z,15.06
2022-10-01T10:21:54.052Z,15.07
2022-10-01T10:27:01.583Z,15.50
2022-10-01T10:32:14.823Z,15.54
2022-10-01T10:37:21.931Z,16.07
2022-10-01T10:42:24.402Z,16.25
2022-10-01T10:47:28.488Z,16.44
2022-10-01T10:52:33.923Z,16.56
2022-10-01T10:57:36.660Z,16.94
2022-10-01T11:02:41.296Z,17.01
2022-10-01T11:07:45.105Z,17.26
2022-10-01T11:12:56.661Z,17.54
2022-10-01T11:18:10.608Z,17.80
2022-10-01T11:23:39.437Z,17.53
2022-10-01T11:28:52.683Z,17.66
2022-10-01T11:34:31.737Z,17.96
2022-10-01T11:39:35.610Z,18.10
2022-10-01T11:44:47.019Z,18.15
2022-10-01T11:50:03.775Z,17.99
2022-10-01T11:55:41.266Z,17.87
2022-10-01T12:00:51.417Z,17.81
2022-10-01T12:05:56.954Z,18.31
2022-10-01T12:11:11.818Z,18.52
2022-10-01T12:16:20.919Z,18.36
2022-10-01T12:21:27.504Z,18.17
2022-10-01T12:26:54.059Z,18.07
2022-10-01T12:32:07.752Z,18.49
2022-10-01T12:37:27.348Z,18.07
2022-10-01T12:43:05.012Z,18.11
2022-10-01T12:48:15.805Z,18.30
2022-10-01T12:53:38.588Z,18.34
2022-10-01T12:58:53.358Z,18.43
2022-10-01T13:04:17.328Z,18.22
2022-10-01T13:09:38.342Z,18.00
2022-10-01T13:14:44.381Z,17.71
2022-10-01T13:19:55.324Z,18.10
2022-10-01T13:25:22.578Z,17.45
2022-10-01T13:30:27.400Z,17.43
2022-10-01T13:35:35.716Z,17.75
2022-10-01T13:40:38.174Z,17.63
2022-10-01T13:45:43.203Z,17.81
2022-10-01T13:51:03.167Z,17.59
2022-10-01T13:56:05.615Z,17.49
2022-10-01T14:01:21.290Z,17.04
2022-10-01T14:06:35.276Z,17.09
2022-10-01T14:11:56.917Z,16.83
2022-10-01T14:17:00.333Z,16.98
2022-10-01T14:22:34.265Z,16.97
2022-10-01T14:27:50.314Z,17.15
2022-10-01T14:33:09.171Z,17.13
2022-10-01T14:38:18.494Z,17.16
2022-10-01T14:43:25.297Z,16.91
2022-10-01T14:48:32.451Z,16.73
2022-10-01T14:53:37.591Z,16.57
2022-10-01T14:58:46.528Z,16.65
2022-10-01T15:03:49.599Z,16.59
2022-10-01T15:08:54.757Z,16.55
2022-10-01T15:14:03.112Z,16.66
2022-10-01T15:19:12.113Z,16.77
2022-10-01T15:24:19.543Z,16.76
2022-10-01T15:29:21.383Z,16.53
2022-10-01T15:34:26.057Z,16.38
2022-10-01T15:39:31.479Z,16.32
2022-10-01T15:44:38.479Z,16.13
2022-10-01T15:49:40.425Z,16.11
2022-10-01T15:54:44.632Z,16.07
2022-10-01T15:59:47.559Z,15.98
2022-10-01T16:04:52.880Z,16.01
2022-10-01T16:09:59.523Z,15.93
2022-10-01T16:15:03.831Z,15.89
2022-10-01T16:20:15.719Z,15.88
2022-10-01T16:25:31.286Z,15.89
2022-10-01T16:30:34.158Z,15.84
2022-10-01T16:35:36.069Z,15.73
2022-10-01T16:40:42.492Z,15.68
2022-10-01T16:45:44.633Z,15.65
2022-10-01T16:50:47.082Z,15.60
2022-10-01T16:55:49.969Z,15.70
2022-10-01T17:00:51.883Z,15.66
2022-10-01T17:05:54.380Z,15.61
2022-10-01T17:11:00.571Z,15.48
2022-10-01T17:16:05.934Z,15.45
2022-10-01T17:21:09.531Z,15.39
2022-10-01T17:26:11.346Z,15.43
2022-10-01T17:31:17.965Z,15.35
2022-10-01T17:36:20.055Z,15.33
2022-10-01T17:41:21.810Z,15.29
2022-10-01T17:46:23.461Z,15.23
2022-10-01T17:51:25.912Z,15.22
2022-10-01T17:56:27.858Z,15.18
2022-10-01T18:01:29.578Z,15.12
2022-10-01T18:06:31.243Z,15.13
2022-10-01T18:11:33.968Z,15.11
2022-10-01T18:16:36.266Z,15.11
2022-10-01T18:21:38.043Z,15.04
2022-10-01T18:26:39.958Z,15.05
2022-10-01T18:31:44.703Z,15.03
2022-10-01T18:37:00.806Z,15.01
2022-10-01T18:42:10.539Z,14.99
2022-10-01T18:47:31.683Z,14.98
2022-10-01T18:52:40.478Z,14.97
2022-10-01T18:58:05.140Z,14.91
2022-10-01T19:03:42.297Z,14.91
2022-10-01T19:09:18.059Z,14.88
2022-10-01T19:14:39.035Z,14.87
2022-10-01T19:20:03.395Z,14.87
2022-10-01T19:25:50.167Z,14.87
2022-10-01T19:31:19.822Z,14.88
2022-10-01T19:36:33.739Z,14.89
2022-10-01T19:41:44.474Z,14.94
2022-10-01T19:46:49.586Z,14.92
2022-10-01T19:51:59.083Z,14.92
2022-10-01T19:57:17.139Z,14.91
2022-10-01T20:02:33.453Z,14.91
2022-10-01T20:07:58.291Z,14.93
2022-10-01T20:13:21.624Z,14.93
2022-10-01T20:18:28.243Z,14.91
2022-10-01T20:23:58.053Z,14.93
2022-10-01T20:29:11.764Z,14.94
2022-10-01T20:34:40.361Z,14.92
2022-10-01T20:39:48.334Z,14.90
2022-10-01T20:44:52.441Z,14.88
2022-10-01T20:50:45.626Z,14.88
2022-10-01T20:56:19.024Z,14.90
2022-10-01T21:01:23.978Z,14.89
2022-10-01T21:06:35.395Z,14.90
2022-10-01T21:11:45.391Z,14.91
2022-10-01T21:16:56.364Z,14.92
2022-10-01T21:22:07.581Z,14.91
2022-10-01T21:27:30.945Z,14.91
2022-10-01T21:32:41.525Z,14.90
2022-10-01T21:38:11.071Z,14.94
2022-10-01T21:43:46.310Z,14.54
2022-10-01T21:49:03.728Z,14.49
2022-10-01T21:54:36.842Z,14.35
2022-10-01T22:00:08.099Z,14.35
2022-10-01T22:05:23.455Z,14.30
2022-10-01T22:10:48.457Z,14.22
2022-10-01T22:15:54.655Z,14.25
2022-10-01T22:20:59.375Z,14.23
2022-10-01T22:26:06.001Z,14.26
2022-10-01T22:31:14.810Z,14.26
2022-10-01T22:36:40.538Z,14.27
2022-10-01T22:42:15.491Z,14.29
2022-10-01T22:47:24.939Z,14.32
2022-10-01T22:52:31.281Z,14.32
2022-10-01T22:57:39.134Z,14.27
2022-10-01T23:02:55.984Z,14.28
2022-10-01T23:07:57.738Z,14.28
2022-10-01T23:13:05.451Z,14.33
2022-10-01T23:18:34.976Z,13.87
2022-10-01T23:23:37.117Z,13.51
2022-10-01T23:28:48.900Z,13.57
2022-10-01T23:34:19.173Z,13.67
2022-10-01T23:39:58.560Z,13.64
2022-10-01T23:45:27.433Z,13.63
2022-10-01T23:50:48.742Z,13.65
2022-10-01T23:56:18.884Z,13.57
